Time;durP1;ratioP1;P1;durP2;ratioP2;P2;SDS_P1;SDS_P2;PMS_P1;PMS_P2;Temp;Humidity;BMP_temperature;BMP_pressure;BME280_temperature;BME280_humidity;BME280_pressure;Samples;Min_cycle;Max_cycle;Signal;HPM_P1;HPM_P2
2024/02/12 00:00:21;;;;;;;2.43;1.60;;;;;;;12.69;100.00;100048.75;2089831;28;20412;-70
2024/02/12 00:01:22;;;;;;;8.00;2.23;;;;;;;12.70;100.00;100039.19;2089750;28;20174;-70
2024/02/12 00:02:22;;;;;;;2.37;1.60;;;;;;;12.34;100.00;99984.28;2089762;28;20173;-70
2024/02/12 00:03:24;;;;;;;3.67;1.80;;;;;;;12.58;100.00;100028.97;2089753;28;20173;-70
2024/02/12 00:04:28;;;;;;;5.23;2.30;;;;;;;12.51;100.00;100023.69;2089694;28;20195;-70
2024/02/12 00:05:29;;;;;;;3.33;1.80;;;;;;;12.39;100.00;100011.47;2097323;28;20426;-70
2024/02/12 00:06:30;;;;;;;2.50;1.70;;;;;;;12.28;100.00;100007.56;2097563;28;20493;-70
2024/02/12 00:07:32;;;;;;;2.20;1.23;;;;;;;12.05;100.00;99975.53;2089889;28;20325;-70
2024/02/12 00:08:33;;;;;;;3.10;1.83;;;;;;;12.24;100.00;99999.38;2089758;28;20722;-71
2024/02/12 00:09:33;;;;;;;2.53;1.27;;;;;;;12.24;100.00;100002.16;2089673;28;20831;-70
2024/02/12 00:10:34;;;;;;;3.23;1.60;;;;;;;12.21;100.00;99997.53;2089629;28;20180;-70
2024/02/12 00:11:35;;;;;;;2.87;1.70;;;;;;;12.14;100.00;99997.81;2097348;28;20205;-70
2024/02/12 00:12:36;;;;;;;2.87;1.47;;;;;;;12.04;100.00;99999.00;2097544;28;20244;-71
2024/02/12 00:13:38;;;;;;;2.83;1.37;;;;;;;12.02;100.00;100009.00;2089750;28;20681;-70
2024/02/12 00:14:39;;;;;;;4.67;2.00;;;;;;;11.65;100.00;99976.75;2089657;28;20426;-70
2024/02/12 00:15:39;;;;;;;5.77;1.50;;;;;;;11.88;100.00;100020.69;2089731;28;20423;-71
2024/02/12 00:16:40;;;;;;;3.17;2.00;;;;;;;11.86;100.00;100012.03;2089801;28;20172;-70
2024/02/12 00:17:41;;;;;;;2.80;1.80;;;;;;;11.93;100.00;100025.66;2089806;28;20237;-71
2024/02/12 00:18:45;;;;;;;3.10;1.67;;;;;;;11.53;100.00;99947.09;2089750;28;20176;-70
2024/02/12 00:19:48;;;;;;;2.13;1.60;;;;;;;12.03;100.00;100016.91;2089690;28;20794;-71
2024/02/12 00:20:49;;;;;;;2.60;1.70;;;;;;;12.08;100.00;100021.06;2089666;28;20415;-70
2024/02/12 00:21:50;;;;;;;1.80;1.30;;;;;;;12.07;100.00;100027.84;2089581;28;20411;-70
2024/02/12 00:22:50;;;;;;;3.50;1.73;;;;;;;11.54;100.00;99931.97;2089712;28;20172;-70
2024/02/12 00:23:51;;;;;;;3.73;1.77;;;;;;;12.15;100.00;100026.34;2089659;28;20230;-70
2024/02/12 00:24:52;;;;;;;3.40;1.70;;;;;;;11.68;100.00;99962.75;2089775;28;20237;-70
2024/02/12 00:25:52;;;;;;;2.97;1.87;;;;;;;12.19;100.00;100038.09;2089643;28;20174;-70
2024/02/12 00:26:53;;;;;;;4.73;2.00;;;;;;;11.96;100.00;99994.19;2089595;28;20169;-70
2024/02/12 00:27:55;;;;;;;4.13;1.40;;;;;;;11.77;100.00;99954.47;2089649;28;20165;-70
2024/02/12 00:28:55;;;;;;;2.87;1.60;;;;;;;12.25;100.00;100016.84;2089783;28;20169;-71
2024/02/12 00:29:56;;;;;;;3.03;1.20;;;;;;;12.24;100.00;100024.38;2089892;28;20510;-70
2024/02/12 00:30:56;;;;;;;2.80;1.70;;;;;;;12.25;100.00;100025.91;2089623;28;20180;-70
2024/02/12 00:31:58;;;;;;;5.63;2.70;;;;;;;12.28;100.00;100022.25;2089617;28;20176;-70
2024/02/12 00:33:00;;;;;;;6.27;1.97;;;;;;;12.31;100.00;100024.13;2089845;28;20165;-70
2024/02/12 00:34:01;;;;;;;5.60;2.13;;;;;;;12.21;100.00;99993.97;2088896;28;20442;-70
2024/02/12 00:35:03;;;;;;;5.50;1.70;;;;;;;12.35;100.00;100019.16;2089030;28;20453;-70
2024/02/12 00:36:04;;;;;;;4.73;2.00;;;;;;;12.36;100.00;100017.16;2089955;28;20259;-71
2024/02/12 00:37:05;;;;;;;3.13;1.70;;;;;;;11.98;100.00;99966.72;2091503;28;20391;-70
2024/02/12 00:38:05;;;;;;;2.30;1.40;;;;;;;12.31;100.00;100010.22;2091189;28;20204;-71
2024/02/12 00:39:09;;;;;;;3.00;1.83;;;;;;;12.31;100.00;100007.44;2091208;28;20204;-70
2024/02/12 00:40:11;;;;;;;4.57;1.63;;;;;;;12.34;100.00;100000.19;2091124;28;20311;-71
2024/02/12 00:41:20;;;;;;;3.47;1.83;;;;;;;12.20;100.00;100003.53;2091178;28;20422;-70
2024/02/12 00:42:23;;;;;;;3.20;1.37;;;;;;;12.08;100.00;100005.19;2091318;28;20394;-70
2024/02/12 00:43:26;;;;;;;3.13;1.77;;;;;;;11.75;100.00;99990.25;2091183;28;20935;-70
2024/02/12 00:44:27;;;;;;;3.17;1.83;;;;;;;11.62;100.00;99978.44;2091217;28;20434;-70
2024/02/12 00:45:31;;;;;;;3.87;1.43;;;;;;;11.72;100.00;99990.34;2091177;28;20415;-70
2024/02/12 00:46:31;;;;;;;2.40;1.30;;;;;;;11.72;100.00;99985.59;2091260;28;20660;-71
2024/02/12 00:47:32;;;;;;;3.70;2.20;;;;;;;11.73;100.00;99980.81;2091225;28;20781;-70
2024/02/12 00:48:33;;;;;;;4.23;2.27;;;;;;;11.60;100.00;99986.47;2098664;28;20213;-71
2024/02/12 00:49:33;;;;;;;5.90;2.40;;;;;;;10.90;100.00;99888.44;2098655;28;20184;-70
2024/02/12 00:50:35;;;;;;;6.60;2.43;;;;;;;11.15;100.00;99963.94;2090542;28;20241;-71
2024/02/12 00:51:36;;;;;;;4.50;1.87;;;;;;;10.72;100.00;99911.25;2091124;28;20202;-71
2024/02/12 00:52:37;;;;;;;3.10;1.80;;;;;;;10.67;100.00;99922.16;2091043;28;20928;-70
2024/02/12 00:53:41;;;;;;;4.67;2.17;;;;;;;10.61;100.00;99921.19;2091089;28;20769;-70
2024/02/12 00:54:42;;;;;;;4.30;2.10;;;;;;;11.13;100.00;99983.03;2090411;28;20541;-70
2024/02/12 00:55:44;;;;;;;4.50;1.90;;;;;;;11.16;100.00;99973.03;2090574;28;20472;-70
2024/02/12 00:56:45;;;;;;;4.30;2.43;;;;;;;11.22;100.00;99960.91;2091031;28;20714;-70
2024/02/12 00:57:46;;;;;;;4.70;2.17;;;;;;;10.52;100.00;99851.84;2091074;28;20945;-69
2024/02/12 00:58:48;;;;;;;5.47;2.07;;;;;;;11.25;100.00;99956.47;2091069;28;20225;-71
2024/02/12 00:59:49;;;;;;;5.20;2.60;;;;;;;11.24;100.00;99954.91;2091032;28;20922;-71
2024/02/12 01:00:50;;;;;;;4.67;2.13;;;;;;;11.27;100.00;99957.56;2091121;28;20422;-70
2024/02/12 01:01:50;;;;;;;2.60;1.80;;;;;;;11.36;100.00;99954.06;2091091;28;20179;-70
2024/02/12 01:02:51;;;;;;;4.37;2.10;;;;;;;10.80;100.00;99865.44;2098518;28;20175;-70
2024/02/12 01:03:51;;;;;;;3.20;1.70;;;;;;;11.45;100.00;99954.13;2098711;28;20183;-70
2024/02/12 01:04:52;;;;;;;3.83;2.27;;;;;;;10.79;100.00;99852.03;2091000;28;20176;-71
2024/02/12 01:05:53;;;;;;;3.93;2.07;;;;;;;11.57;100.00;99969.91;2091161;28;20204;-70
2024/02/12 01:06:56;;;;;;;4.83;2.13;;;;;;;11.62;100.00;99966.56;2091115;28;20176;-70
2024/02/12 01:07:57;;;;;;;4.10;2.20;;;;;;;11.66;100.00;99964.44;2090265;28;20438;-70
2024/02/12 01:08:57;;;;;;;5.63;2.20;;;;;;;11.71;100.00;99972.16;2090366;28;20411;-71
2024/02/12 01:09:58;;;;;;;2.73;1.60;;;;;;;11.76;100.00;99966.03;2091048;28;20183;-71
2024/02/12 01:10:58;;;;;;;2.93;1.90;;;;;;;11.71;100.00;99959.06;2090970;28;20179;-70
2024/02/12 01:11:59;;;;;;;5.63;2.30;;;;;;;11.81;100.00;99974.53;2098540;28;20211;-70
2024/02/12 01:13:00;;;;;;;3.43;2.20;;;;;;;11.87;100.00;99969.94;2098579;28;20632;-71
2024/02/12 01:14:01;;;;;;;4.60;2.13;;;;;;;11.90;100.00;99980.16;2090897;28;20173;-70
2024/02/12 01:15:02;;;;;;;4.47;2.17;;;;;;;11.95;100.00;99993.41;2091003;28;20476;-70
2024/02/12 01:16:04;;;;;;;3.63;2.03;;;;;;;11.95;100.00;99978.75;2091129;28;20176;-70
2024/02/12 01:17:04;;;;;;;4.80;2.17;;;;;;;11.96;100.00;99983.06;2090907;28;20411;-70
2024/02/12 01:18:07;;;;;;;7.07;1.80;;;;;;;11.81;100.00;99955.13;2090955;28;20553;-70
2024/02/12 01:19:08;;;;;;;3.40;1.77;;;;;;;11.89;100.00;99961.91;2090842;28;20602;-70
2024/02/12 01:20:11;;;;;;;3.77;1.87;;;;;;;12.00;100.00;99976.16;2090976;28;20777;-70
2024/02/12 01:21:12;;;;;;;5.80;2.07;;;;;;;11.94;100.00;99972.41;2090826;28;20418;-70
2024/02/12 01:22:13;;;;;;;3.67;1.80;;;;;;;12.05;100.00;99977.56;2090826;28;20419;-70
2024/02/12 01:23:15;;;;;;;4.30;1.83;;;;;;;12.08;100.00;99973.84;2090793;28;20179;-70
2024/02/12 01:24:16;;;;;;;3.07;1.63;;;;;;;11.71;100.00;99916.66;2090914;28;20948;-70
2024/02/12 01:25:20;;;;;;;2.97;1.93;;;;;;;12.15;100.00;99976.38;2090835;28;20809;-71
2024/02/12 01:26:21;;;;;;;3.23;1.70;;;;;;;12.16;100.00;99989.00;2090836;28;20178;-70
2024/02/12 01:27:23;;;;;;;3.90;1.60;;;;;;;12.17;100.00;99988.56;2090770;28;20419;-70
2024/02/12 01:28:24;;;;;;;4.00;1.87;;;;;;;12.19;100.00;99983.31;2090940;28;20411;-70
2024/02/12 01:29:26;;;;;;;3.33;1.90;;;;;;;12.19;100.00;99990.88;2090841;28;20936;-70
2024/02/12 01:30:28;;;;;;;5.90;2.13;;;;;;;11.92;100.00;99958.22;2090805;28;20173;-70
2024/02/12 01:31:28;;;;;;;3.70;2.10;;;;;;;12.21;100.00;99988.41;2090715;28;20415;-70
2024/02/12 01:32:30;;;;;;;4.03;2.47;;;;;;;11.32;100.00;99851.56;2090973;28;20419;-70
2024/02/12 01:33:31;;;;;;;7.03;2.10;;;;;;;12.26;100.00;99985.81;2090776;28;20208;-70
2024/02/12 01:34:32;;;;;;;4.07;2.20;;;;;;;12.25;100.00;99972.38;2090959;28;20861;-70
2024/02/12 01:35:33;;;;;;;6.27;2.17;;;;;;;12.07;100.00;99955.66;2090059;28;20495;-70
2024/02/12 01:36:36;;;;;;;5.40;2.57;;;;;;;12.05;100.00;99960.91;2089981;28;20602;-70
2024/02/12 01:37:38;;;;;;;4.40;1.90;;;;;;;12.25;100.00;99975.91;2089966;28;20260;-70
2024/02/12 01:38:39;;;;;;;2.93;1.80;;;;;;;12.23;100.00;99992.28;2081933;28;20441;-70
2024/02/12 01:39:40;;;;;;;4.83;1.80;;;;;;;12.22;100.00;99976.84;2090060;28;20945;-70
2024/02/12 01:40:40;;;;;;;5.40;1.63;;;;;;;12.17;100.00;99968.34;2090103;28;20506;-70
2024/02/12 01:41:42;;;;;;;3.20;1.37;;;;;;;11.70;100.00;99921.44;2090709;28;20426;-70
2024/02/12 01:42:44;;;;;;;2.07;1.20;;;;;;;11.89;100.00;99955.59;2090837;28;20645;-70
2024/02/12 01:43:44;;;;;;;2.07;1.17;;;;;;;11.76;100.00;99950.16;2090716;28;20413;-70
2024/02/12 01:45:13;;;;;;;3.93;1.47;;;;;;;11.99;100.00;99982.19;2089926;28;20966;-70
2024/02/12 01:46:13;;;;;;;2.83;1.47;;;;;;;11.93;100.00;99968.09;2090537;28;20523;-70
2024/02/12 01:47:15;;;;;;;5.80;1.40;;;;;;;11.99;100.00;99985.72;2090202;28;20442;-70
2024/02/12 01:48:18;;;;;;;2.90;1.50;;;;;;;12.01;100.00;99983.25;2098293;28;20657;-70
2024/02/12 01:49:21;;;;;;;3.83;1.70;;;;;;;11.74;100.00;99949.81;2089857;28;20431;-70
2024/02/12 01:50:22;;;;;;;2.17;1.10;;;;;;;12.03;100.00;99991.13;2090197;28;20427;-70
2024/02/12 01:51:24;;;;;;;2.53;1.60;;;;;;;12.04;100.00;99981.56;2090733;28;20911;-70
2024/02/12 01:52:27;;;;;;;3.20;1.37;;;;;;;11.45;100.00;99893.09;2090685;28;20179;-71
2024/02/12 01:53:27;;;;;;;3.10;1.20;;;;;;;11.96;100.00;99963.63;2090765;28;20441;-70
2024/02/12 01:54:28;;;;;;;9.33;1.50;;;;;;;11.98;100.00;99986.16;2090620;28;20425;-70
2024/02/12 01:55:29;;;;;;;3.53;1.67;;;;;;;12.03;100.00;99980.00;2098194;28;20228;-70
2024/02/12 01:56:31;;;;;;;1.80;1.23;;;;;;;12.06;100.00;99977.13;2098260;28;20180;-70
2024/02/12 01:57:31;;;;;;;3.53;1.87;;;;;;;12.05;100.00;99975.53;2090434;28;20422;-70
2024/02/12 01:58:34;;;;;;;2.53;1.33;;;;;;;11.24;100.00;99843.97;2090567;28;20426;-71
2024/02/12 01:59:34;;;;;;;4.80;1.90;;;;;;;11.42;100.00;99886.44;2090612;28;20188;-71
2024/02/12 02:00:35;;;;;;;3.13;1.37;;;;;;;11.91;100.00;99965.03;2090704;28;20448;-70
2024/02/12 02:01:36;;;;;;;5.00;1.27;;;;;;;11.96;100.00;99969.97;2090591;28;20180;-70
2024/02/12 02:02:42;;;;;;;3.67;1.50;;;;;;;12.01;100.00;99963.81;2090533;28;20456;-70
2024/02/12 02:03:44;;;;;;;3.53;1.57;;;;;;;12.02;100.00;99968.16;2090607;28;20155;-70
2024/02/12 02:04:45;;;;;;;2.60;1.63;;;;;;;12.00;100.00;99969.84;2090532;28;20422;-70
2024/02/12 02:05:45;;;;;;;2.53;0.77;;;;;;;11.90;100.00;99963.47;2090497;28;20426;-70
2024/02/12 02:06:55;;;;;;;2.90;1.50;;;;;;;11.81;100.00;99949.56;2090589;28;20173;-70
2024/02/12 02:08:00;;;;;;;1.33;1.00;;;;;;;11.87;100.00;99963.59;2090614;28;20173;-70
2024/02/12 02:09:00;;;;;;;4.23;1.20;;;;;;;11.81;100.00;99959.88;2090745;28;20454;-70
2024/02/12 02:10:01;;;;;;;3.57;0.97;;;;;;;11.75;100.00;99951.38;2090455;28;20468;-70
2024/02/12 02:11:11;;;;;;;1.83;1.20;;;;;;;11.78;100.00;99955.25;2090440;28;20658;-70
2024/02/12 02:12:13;;;;;;;1.50;0.70;;;;;;;11.79;100.00;99951.25;2089833;28;20172;-70
2024/02/12 02:13:14;;;;;;;2.33;1.00;;;;;;;11.80;100.00;99944.47;2089836;28;20994;-70
2024/02/12 02:14:15;;;;;;;1.03;0.90;;;;;;;11.79;100.00;99948.47;2090149;28;20426;-70
2024/02/12 02:15:16;;;;;;;1.40;0.67;;;;;;;11.75;100.00;99937.50;2097931;28;21017;-70
2024/02/12 02:16:16;;;;;;;2.07;0.90;;;;;;;11.31;100.00;99893.63;2098132;28;20672;-70
2024/02/12 02:17:18;;;;;;;0.97;0.70;;;;;;;11.58;100.00;99930.59;2098036;28;20287;-70
2024/02/12 02:18:20;;;;;;;1.23;0.60;;;;;;;11.59;100.00;99945.28;2097878;28;20203;-70
2024/02/12 02:19:23;;;;;;;2.60;1.07;;;;;;;11.50;100.00;99942.44;2090342;28;20430;-70
2024/02/12 02:20:23;;;;;;;3.87;0.97;;;;;;;11.47;100.00;99951.69;2090438;28;20414;-70
2024/02/12 02:21:25;;;;;;;1.37;0.63;;;;;;;11.09;100.00;99907.53;2089713;28;20539;-70
2024/02/12 02:22:26;;;;;;;2.00;0.80;;;;;;;11.49;100.00;99957.53;2089789;28;20280;-70
2024/02/12 02:23:27;;;;;;;1.57;0.70;;;;;;;11.55;100.00;99967.59;2090379;28;20824;-70
2024/02/12 02:24:28;;;;;;;2.83;0.80;;;;;;;10.94;100.00;99859.38;2090287;28;20426;-70
2024/02/12 02:25:28;;;;;;;1.97;0.97;;;;;;;11.06;100.00;99868.84;2089644;28;20430;-70
2024/02/12 02:26:29;;;;;;;1.50;0.80;;;;;;;11.66;100.00;99962.44;2089780;28;20187;-71
2024/02/12 02:27:29;;;;;;;2.20;0.80;;;;;;;11.25;100.00;99906.53;2089681;28;20180;-70
2024/02/12 02:28:30;;;;;;;1.20;0.90;;;;;;;11.69;100.00;99961.50;2089710;28;20173;-70
2024/02/12 02:29:30;;;;;;;1.03;0.50;;;;;;;11.74;100.00;99962.94;2090316;28;20176;-70
2024/02/12 02:30:31;;;;;;;7.97;1.23;;;;;;;11.80;100.00;99972.22;2090315;28;20254;-71
2024/02/12 02:31:33;;;;;;;3.80;0.80;;;;;;;11.85;100.00;99966.84;2090289;28;20557;-71
2024/02/12 02:32:35;;;;;;;3.33;0.97;;;;;;;11.89;100.00;99964.69;2090271;28;20195;-70
2024/02/12 02:33:36;;;;;;;3.63;0.70;;;;;;;11.90;100.00;99963.47;2090311;28;20446;-70
2024/02/12 02:34:37;;;;;;;2.63;0.97;;;;;;;11.47;100.00;99890.66;2090296;28;20930;-71
2024/02/12 02:35:37;;;;;;;1.80;0.80;;;;;;;11.34;100.00;99882.41;2089599;28;20897;-70
2024/02/12 02:36:38;;;;;;;2.37;1.00;;;;;;;11.83;100.00;99954.66;2089405;28;20236;-70
2024/02/12 02:37:39;;;;;;;2.33;0.63;;;;;;;11.56;100.00;99919.19;2086708;28;20192;-70
2024/02/12 02:38:39;;;;;;;2.47;0.97;;;;;;;11.80;100.00;99959.13;2082024;28;20169;-70
2024/02/12 02:39:40;;;;;;;2.60;0.90;;;;;;;11.83;100.00;99960.22;2082008;28;20181;-70
2024/02/12 02:40:44;;;;;;;1.73;0.90;;;;;;;11.48;100.00;99920.69;2082078;28;20650;-71
2024/02/12 02:41:45;;;;;;;0.80;0.60;;;;;;;11.84;100.00;99967.31;2081935;28;20179;-70
2024/02/12 02:42:46;;;;;;;5.67;0.90;;;;;;;11.80;100.00;99955.56;2081964;28;20776;-70
2024/02/12 02:43:48;;;;;;;3.17;0.83;;;;;;;11.80;100.00;99961.09;2081325;28;20462;-71
2024/02/12 02:44:49;;;;;;;4.70;0.87;;;;;;;11.41;100.00;99904.31;2089808;28;20186;-71
2024/02/12 02:45:50;;;;;;;1.00;0.60;;;;;;;11.22;100.00;99882.50;2089740;28;20417;-70
2024/02/12 02:46:50;;;;;;;1.17;0.60;;;;;;;11.66;100.00;99951.34;2090199;28;20167;-70
2024/02/12 02:47:53;;;;;;;1.77;0.70;;;;;;;11.67;100.00;99954.88;2090132;28;20219;-70
2024/02/12 02:48:55;;;;;;;3.33;0.80;;;;;;;11.35;100.00;99908.91;2090155;28;20233;-71
2024/02/12 02:49:57;;;;;;;1.83;0.70;;;;;;;11.71;100.00;99959.06;2090289;28;20415;-70
2024/02/12 02:50:58;;;;;;;1.77;0.70;;;;;;;11.78;100.00;99960.81;2089488;28;20418;-70
2024/02/12 02:51:58;;;;;;;1.87;0.77;;;;;;;11.53;100.00;99919.34;2089567;28;20415;-70
2024/02/12 02:52:59;;;;;;;1.33;0.80;;;;;;;11.05;100.00;99834.81;2090080;28;20172;-70
2024/02/12 02:54:00;;;;;;;2.53;1.37;;;;;;;11.93;100.00;99967.34;2090190;28;20227;-71
2024/02/12 02:55:01;;;;;;;2.50;0.80;;;;;;;11.95;100.00;99970.44;2090107;28;20411;-70
2024/02/12 02:56:02;;;;;;;3.00;1.20;;;;;;;11.97;100.00;99971.53;2090138;28;20230;-70
2024/02/12 02:57:03;;;;;;;6.47;1.20;;;;;;;12.02;100.00;99970.91;2090188;28;20923;-71
2024/02/12 02:58:03;;;;;;;3.03;1.13;;;;;;;11.93;100.00;99950.69;2089879;28;20208;-70
2024/02/12 02:59:04;;;;;;;2.30;1.00;;;;;;;11.60;100.00;99880.22;2088734;28;20214;-70
2024/02/12 03:00:06;;;;;;;2.03;1.20;;;;;;;12.11;100.00;99962.63;2089504;28;20222;-71
2024/02/12 03:01:08;;;;;;;5.50;1.50;;;;;;;11.36;100.00;99856.97;2090087;28;20516;-70
2024/02/12 03:02:11;;;;;;;3.57;1.50;;;;;;;11.89;100.00;99955.59;2090085;28;20418;-71
2024/02/12 03:03:13;;;;;;;4.57;1.70;;;;;;;11.47;100.00;99901.75;2090235;28;20422;-70
2024/02/12 03:04:16;;;;;;;3.03;1.63;;;;;;;11.82;100.00;99959.44;2090053;28;20429;-70
2024/02/12 03:05:17;;;;;;;4.97;1.30;;;;;;;11.83;100.00;99963.75;2090275;28;20418;-70
2024/02/12 03:06:19;;;;;;;2.00;1.10;;;;;;;11.70;100.00;99948.41;2090002;28;20418;-71
2024/02/12 03:07:19;;;;;;;5.00;2.10;;;;;;;11.93;100.00;99973.66;2088559;28;20262;-70
2024/02/12 03:08:20;;;;;;;4.10;1.43;;;;;;;11.78;100.00;99944.16;2082069;28;20929;-71
2024/02/12 03:09:21;;;;;;;5.37;1.70;;;;;;;11.96;100.00;99969.19;2089953;28;20176;-70
2024/02/12 03:10:21;;;;;;;7.50;3.33;;;;;;;11.97;100.00;99963.19;2090021;28;20657;-71
2024/02/12 03:11:23;;;;;;;7.53;3.03;;;;;;;11.12;100.00;99839.31;2089935;28;20900;-70
2024/02/12 03:12:26;;;;;;;10.20;4.20;;;;;;;11.90;100.00;99957.16;2089981;28;20208;-70
2024/02/12 03:13:27;;;;;;;5.80;3.23;;;;;;;11.69;100.00;99930.97;2090078;28;20415;-71
2024/02/12 03:14:28;;;;;;;10.47;4.00;;;;;;;11.79;100.00;99968.66;2089958;28;20931;-70
2024/02/12 03:15:30;;;;;;;10.93;4.30;;;;;;;11.74;100.00;99954.63;2089952;28;20793;-70
2024/02/12 03:16:32;;;;;;;9.37;3.53;;;;;;;11.70;100.00;99963.09;2089905;28;20556;-71
2024/02/12 03:17:33;;;;;;;13.00;3.80;;;;;;;11.34;100.00;99904.59;2089847;28;20816;-70
2024/02/12 03:18:33;;;;;;;9.50;3.50;;;;;;;11.66;100.00;99942.22;2089988;28;20430;-70
2024/02/12 03:19:35;;;;;;;7.63;3.33;;;;;;;11.60;100.00;99944.06;2089922;28;20169;-70
2024/02/12 03:20:37;;;;;;;8.97;3.93;;;;;;;11.61;100.00;99953.91;2083103;28;20188;-70
2024/02/12 03:21:37;;;;;;;6.87;3.50;;;;;;;11.50;100.00;99940.44;2081911;28;20428;-70
2024/02/12 03:22:39;;;;;;;10.93;4.73;;;;;;;11.06;100.00;99875.16;2081679;28;20509;-70
2024/02/12 03:23:40;;;;;;;9.23;4.47;;;;;;;11.48;100.00;99948.44;2081727;28;20190;-70
2024/02/12 03:24:41;;;;;;;11.90;5.23;;;;;;;11.05;100.00;99890.25;2084060;28;20434;-70
2024/02/12 03:25:41;;;;;;;9.00;3.67;;;;;;;11.43;100.00;99937.91;2089926;28;20180;-70
2024/02/12 03:26:42;;;;;;;11.83;4.33;;;;;;;11.37;100.00;99936.97;2089930;28;20261;-70
2024/02/12 03:27:43;;;;;;;9.13;5.13;;;;;;;11.45;100.00;99946.59;2089973;28;20207;-71
2024/02/12 03:28:44;;;;;;;10.70;4.40;;;;;;;11.39;100.00;99933.75;2089882;28;20180;-70
2024/02/12 03:29:47;;;;;;;7.67;4.33;;;;;;;11.13;100.00;99902.59;2089807;28;20947;-70
2024/02/12 03:30:48;;;;;;;16.77;5.03;;;;;;;11.40;100.00;99943.59;2089853;28;20176;-70
2024/02/12 03:31:49;;;;;;;12.47;6.13;;;;;;;11.14;100.00;99918.03;2089922;28;20509;-71
2024/02/12 03:32:49;;;;;;;10.60;5.73;;;;;;;11.40;100.00;99963.81;2089834;28;20173;-70
2024/02/12 03:33:53;;;;;;;12.80;5.13;;;;;;;11.41;100.00;99945.94;2089814;28;20181;-70
2024/02/12 03:34:54;;;;;;;10.13;4.90;;;;;;;11.45;100.00;99951.34;2088277;28;20255;-70
2024/02/12 03:35:55;;;;;;;9.03;4.50;;;;;;;11.44;100.00;99947.81;2081652;28;20427;-71
2024/02/12 03:36:56;;;;;;;11.50;4.50;;;;;;;10.91;100.00;99874.13;2081620;28;20465;-70
2024/02/12 03:37:58;;;;;;;12.77;5.30;;;;;;;11.18;100.00;99904.78;2080845;28;20237;-71
2024/02/12 03:38:59;;;;;;;13.07;4.40;;;;;;;11.07;100.00;99892.56;2081027;28;20951;-70
2024/02/12 03:39:59;;;;;;;10.90;5.47;;;;;;;11.47;100.00;99946.88;2081586;28;20862;-71
2024/02/12 03:41:00;;;;;;;12.47;4.87;;;;;;;11.27;100.00;99918.72;2081584;28;20172;-69
2024/02/12 03:42:00;;;;;;;11.30;5.17;;;;;;;11.51;100.00;99946.75;2081581;28;20660;-71
2024/02/12 03:43:08;;;;;;;9.03;4.47;;;;;;;11.50;100.00;99948.75;2081571;28;20226;-70
2024/02/12 03:44:09;;;;;;;10.30;5.07;;;;;;;11.49;100.00;99949.22;2081684;28;20169;-71
2024/02/12 03:45:14;;;;;;;8.83;4.27;;;;;;;11.44;100.00;99958.91;2081602;28;20420;-70
2024/02/12 03:46:21;;;;;;;10.83;5.13;;;;;;;11.50;100.00;99962.63;2080894;28;20188;-70
2024/02/12 03:47:28;;;;;;;14.93;4.70;;;;;;;11.11;100.00;99888.44;2081290;28;20440;-71
2024/02/12 04:00:21;;;;;;;10.37;5.47;;;;;;;11.81;100.00;99946.78;2089983;28;20395;-70
2024/02/12 04:01:23;;;;;;;15.17;4.93;;;;;;;11.59;100.00;99921.06;2089756;28;20429;-71
2024/02/12 04:02:23;;;;;;;11.60;4.60;;;;;;;11.79;100.00;99948.47;2089972;28;20414;-70
2024/02/12 04:03:24;;;;;;;12.57;4.57;;;;;;;11.66;100.00;99926.38;2089780;28;20177;-70
2024/02/12 04:04:25;;;;;;;13.57;5.63;;;;;;;10.85;100.00;99803.88;2089748;28;20180;-71
2024/02/12 04:05:25;;;;;;;10.83;5.23;;;;;;;11.28;100.00;99864.78;2089695;28;20567;-70
2024/02/12 04:06:34;;;;;;;13.33;4.47;;;;;;;11.74;100.00;99935.19;2089702;28;20176;-71
2024/02/12 04:07:34;;;;;;;12.37;5.53;;;;;;;11.90;100.00;99951.59;2089947;28;20845;-70
2024/02/12 04:08:35;;;;;;;9.70;4.90;;;;;;;11.93;100.00;99953.47;2089715;28;20422;-71
2024/02/12 04:09:41;;;;;;;13.63;5.43;;;;;;;11.94;100.00;99957.78;2089860;28;20619;-71
2024/02/12 04:10:42;;;;;;;11.50;4.40;;;;;;;11.55;100.00;99889.13;2091306;28;20322;-71
2024/02/12 04:11:43;;;;;;;13.07;4.77;;;;;;;11.99;100.00;99948.84;2091424;28;20457;-71
2024/02/12 04:12:47;;;;;;;9.00;4.67;;;;;;;11.98;100.00;99953.63;2091383;28;20617;-70
2024/02/12 04:13:49;;;;;;;12.30;5.47;;;;;;;11.98;100.00;99959.19;2090927;28;20905;-71
2024/02/12 04:14:50;;;;;;;15.93;5.17;;;;;;;12.01;100.00;99957.50;2083119;28;20416;-70
2024/02/12 04:15:51;;;;;;;17.00;5.20;;;;;;;12.04;100.00;99959.38;2083094;28;20419;-70
2024/02/12 04:16:52;;;;;;;11.90;5.70;;;;;;;12.02;100.00;99965.38;2082401;28;20637;-70
2024/02/12 04:17:52;;;;;;;11.63;4.97;;;;;;;12.04;100.00;99970.47;2082423;28;20488;-71
2024/02/12 04:18:53;;;;;;;16.53;4.93;;;;;;;11.71;100.00;99924.97;2087637;28;20717;-71
2024/02/12 04:19:54;;;;;;;11.83;5.70;;;;;;;12.09;100.00;99972.66;2091361;28;20218;-71
2024/02/12 04:20:54;;;;;;;13.67;6.43;;;;;;;11.75;100.00;99926.41;2091350;28;20217;-70
2024/02/12 04:21:55;;;;;;;9.77;4.70;;;;;;;11.98;100.00;99941.72;2091234;28;20814;-70
2024/02/12 04:22:56;;;;;;;10.20;5.10;;;;;;;11.70;100.00;99899.25;2091256;28;20642;-71
2024/02/12 04:23:57;;;;;;;9.23;4.87;;;;;;;11.31;100.00;99850.03;2091370;28;20181;-71
2024/02/12 04:24:58;;;;;;;11.57;5.70;;;;;;;12.17;100.00;99966.34;2091335;28;20226;-71
2024/02/12 04:26:01;;;;;;;13.60;5.10;;;;;;;12.13;100.00;99971.25;2091228;28;20865;-71
2024/02/12 04:27:03;;;;;;;8.27;4.57;;;;;;;12.12;100.00;99969.72;2091290;28;20788;-70
2024/02/12 04:28:05;;;;;;;14.13;5.50;;;;;;;12.11;100.00;99962.63;2091291;28;20417;-70
2024/02/12 04:29:09;;;;;;;13.13;5.17;;;;;;;11.90;100.00;99954.38;2091303;28;20429;-70
2024/02/12 04:30:10;;;;;;;11.33;5.30;;;;;;;11.96;100.00;99977.53;2091220;28;20418;-70
2024/02/12 04:31:11;;;;;;;11.67;5.50;;;;;;;11.88;100.00;99967.94;2091355;28;20815;-70
2024/02/12 04:32:12;;;;;;;15.03;5.80;;;;;;;11.81;100.00;99946.00;2091229;28;20430;-71
2024/02/12 04:33:12;;;;;;;14.70;5.73;;;;;;;11.98;100.00;99969.50;2091255;28;20241;-70
2024/02/12 04:34:13;;;;;;;14.13;5.77;;;;;;;11.97;100.00;99974.28;2091218;28;20177;-71
2024/02/12 04:35:14;;;;;;;11.40;5.13;;;;;;;12.01;100.00;99965.81;2091218;28;20261;-70
2024/02/12 04:36:15;;;;;;;12.83;5.57;;;;;;;12.00;100.00;99976.16;2091003;28;20591;-71
2024/02/12 04:37:15;;;;;;;10.90;5.70;;;;;;;11.88;100.00;99973.50;2091267;28;20176;-71
2024/02/12 04:38:16;;;;;;;8.43;4.27;;;;;;;11.84;100.00;99965.28;2091078;28;20202;-71
2024/02/12 04:39:16;;;;;;;8.37;4.43;;;;;;;11.92;100.00;99976.88;2091130;28;20208;-70
2024/02/12 04:40:17;;;;;;;13.97;4.70;;;;;;;11.81;100.00;99955.13;2091173;28;20649;-71
2024/02/12 04:41:19;;;;;;;14.07;4.90;;;;;;;11.75;100.00;99951.38;2091105;28;20191;-70
2024/02/12 04:42:21;;;;;;;8.80;4.57;;;;;;;11.19;100.00;99869.53;2098728;28;20270;-71
2024/02/12 04:43:22;;;;;;;12.80;4.33;;;;;;;11.85;100.00;99963.28;2098640;28;20431;-70
2024/02/12 04:44:23;;;;;;;8.93;4.10;;;;;;;11.93;100.00;99967.34;2091041;28;20461;-70
2024/02/12 04:45:24;;;;;;;14.50;5.07;;;;;;;11.94;100.00;99966.88;2091115;28;20180;-71
2024/02/12 04:46:25;;;;;;;7.77;4.13;;;;;;;11.95;100.00;99971.19;2091096;28;20464;-70
2024/02/12 04:47:25;;;;;;;10.97;5.37;;;;;;;11.93;100.00;99970.13;2091102;28;20415;-70
2024/02/12 04:48:26;;;;;;;13.00;5.40;;;;;;;11.91;100.00;99972.56;2091112;28;20172;-70
2024/02/12 04:49:31;;;;;;;13.83;5.80;;;;;;;11.89;100.00;99969.50;2091034;28;20180;-71
2024/02/12 04:50:32;;;;;;;13.60;5.77;;;;;;;11.81;100.00;99973.75;2091217;28;20833;-70
2024/02/12 04:51:33;;;;;;;11.70;5.97;;;;;;;11.80;100.00;99981.31;2090957;28;20418;-70
2024/02/12 04:52:34;;;;;;;18.23;7.30;;;;;;;11.87;100.00;99986.59;2090859;28;20249;-68
2024/02/12 04:53:36;;;;;;;13.63;7.17;;;;;;;11.33;100.00;99914.13;2090583;28;20422;-67
2024/02/12 04:54:38;;;;;;;13.80;7.27;;;;;;;11.24;100.00;99882.81;2084116;28;20200;-70
2024/02/12 04:55:39;;;;;;;12.67;6.40;;;;;;;11.79;100.00;99974.19;2087386;28;20457;-69
2024/02/12 04:56:40;;;;;;;20.67;8.17;;;;;;;11.58;100.00;99949.28;2088366;28;20445;-73